Time;durP1;ratioP1;P1;durP2;ratioP2;P2;SDS_P1;SDS_P2;PMS_P1;PMS_P2;Temp;Humidity;BMP_temperature;BMP_pressure;BME280_temperature;BME280_humidity;BME280_pressure;Samples;Min_cycle;Max_cycle;Signal;HPM_P1;HPM_P2
2022/03/24 00:01:34;;;;;;;19.20;11.93;;;;;;;-1.52;64.60;94193.56;5114584;28;20443;-45
2022/03/24 00:04:00;;;;;;;21.92;10.27;;;;;;;-1.32;65.11;94224.84;5114190;28;20031;-45
2022/03/24 00:06:25;;;;;;;18.77;9.82;;;;;;;-1.68;64.41;94193.88;5113627;28;20084;-43
2022/03/24 00:08:51;;;;;;;19.95;10.55;;;;;;;-1.76;65.16;94208.91;5112888;28;20029;-44
2022/03/24 00:11:17;;;;;;;23.45;13.45;;;;;;;-1.45;65.08;94219.56;5113793;28;20075;-44
2022/03/24 00:13:43;;;;;;;26.77;15.05;;;;;;;-1.45;64.56;94216.88;5113721;28;20042;-46
2022/03/24 00:16:09;;;;;;;32.10;12.60;;;;;;;-1.45;64.80;94206.03;5113655;28;20110;-44
2022/03/24 00:18:34;;;;;;;22.30;11.38;;;;;;;-1.28;64.26;94211.91;5113690;28;20023;-45
2022/03/24 00:21:00;;;;;;;25.95;12.85;;;;;;;-1.28;64.07;94215.38;5113811;28;20036;-43
2022/03/24 00:23:25;;;;;;;29.27;14.13;;;;;;;-1.24;64.03;94207.81;5101377;28;20028;-44
2022/03/24 00:25:51;;;;;;;26.65;14.50;;;;;;;-1.21;63.63;94206.19;5093040;28;20020;-45
2022/03/24 00:28:16;;;;;;;24.92;14.48;;;;;;;-1.21;63.71;94203.47;5093144;28;20039;-43
2022/03/24 00:30:42;;;;;;;29.70;17.17;;;;;;;-1.66;65.22;94205.00;5093260;28;20020;-45
2022/03/24 00:33:07;;;;;;;29.58;16.20;;;;;;;-1.52;65.30;94209.06;5093292;28;20032;-45
2022/03/24 00:35:33;;;;;;;33.17;16.13;;;;;;;-1.56;64.25;94182.13;5092764;28;20495;-44
2022/03/24 00:37:58;;;;;;;30.13;15.10;;;;;;;-1.38;64.81;94199.56;5093159;28;20055;-45
2022/03/24 00:40:24;;;;;;;26.58;14.65;;;;;;;-1.56;65.74;94190.25;5092360;28;20024;-45
2022/03/24 00:42:50;;;;;;;29.80;14.27;;;;;;;-1.92;66.64;94184.09;5093088;28;20024;-44
2022/03/24 00:45:18;;;;;;;31.10;15.30;;;;;;;-1.72;66.38;94179.75;5092806;28;20481;-44
2022/03/24 00:47:45;;;;;;;27.80;14.00;;;;;;;-1.78;66.40;94181.56;5093021;28;20028;-44
2022/03/24 00:50:12;;;;;;;23.90;12.52;;;;;;;-1.76;66.46;94176.44;5092603;28;20517;-46
2022/03/24 00:52:41;;;;;;;22.25;12.38;;;;;;;-1.78;67.13;94175.38;5092727;28;20032;-44
2022/03/24 00:55:07;;;;;;;;;;;;;;;-1.67;65.72;94165.59;5096607;28;20026;-45
2022/03/24 00:57:33;;;;;;;21.23;11.13;;;;;;;-1.78;65.85;94165.31;5113198;28;20308;-45
2022/03/24 00:59:58;;;;;;;14.52;8.30;;;;;;;-1.85;65.60;94165.63;5112816;28;20032;-45
2022/03/24 01:02:28;;;;;;;22.23;11.50;;;;;;;-2.04;65.79;94166.81;5112782;28;20036;-46
2022/03/24 01:04:55;;;;;;;27.45;12.73;;;;;;;-2.23;66.35;94156.44;5112132;28;20024;-44
2022/03/24 01:07:22;;;;;;;34.97;18.67;;;;;;;-2.02;66.39;94142.78;5112646;28;20088;-44
2022/03/24 01:09:47;;;;;;;42.97;19.25;;;;;;;-1.87;65.52;94153.72;5112590;28;20026;-45
2022/03/24 01:12:13;;;;;;;31.52;16.23;;;;;;;-1.85;66.55;94154.78;5112528;28;20027;-45
2022/03/24 01:14:39;;;;;;;31.92;16.48;;;;;;;-1.76;65.95;94154.78;5112806;28;20088;-45
2022/03/24 01:17:07;;;;;;;34.50;17.58;;;;;;;-1.81;66.49;94147.25;5112541;28;20035;-44
2022/03/24 01:19:32;;;;;;;48.88;19.20;;;;;;;-2.08;66.89;94143.81;5101387;28;20032;-46
2022/03/24 01:21:58;;;;;;;28.75;14.95;;;;;;;-2.07;66.97;94137.94;5092055;28;20412;-44
2022/03/24 01:24:24;;;;;;;28.23;13.05;;;;;;;-1.94;66.47;94140.50;5090754;28;20458;-45
2022/03/24 01:26:49;;;;;;;19.15;10.50;;;;;;;-2.07;67.19;94137.19;5091851;28;20037;-44
2022/03/24 01:29:15;;;;;;;21.92;9.75;;;;;;;-2.22;66.42;94098.41;5092252;28;20020;-45
2022/03/24 01:31:42;;;;;;;24.98;9.38;;;;;;;-2.16;67.12;94131.78;5090943;28;20334;-45
2022/03/24 01:34:09;;;;;;;15.98;8.75;;;;;;;-2.11;67.12;94128.47;5091593;28;20032;-45
2022/03/24 01:36:35;;;;;;;13.80;6.82;;;;;;;-2.09;67.17;94128.78;5092119;28;20417;-44
2022/03/24 01:39:01;;;;;;;15.93;7.25;;;;;;;-2.39;67.13;94122.31;5091623;28;20035;-44
2022/03/24 01:41:26;;;;;;;11.45;7.60;;;;;;;-2.17;66.81;94122.16;5091161;28;20027;-45
2022/03/24 01:43:51;;;;;;;18.40;8.73;;;;;;;-2.14;66.89;94127.41;5091813;28;20028;-44
2022/03/24 01:46:22;;;;;;;15.32;8.55;;;;;;;-2.13;66.61;94123.53;5091672;28;20016;-45
2022/03/24 01:48:48;;;;;;;14.70;7.47;;;;;;;-2.12;66.88;94122.31;5091795;28;20028;-44
2022/03/24 01:51:13;;;;;;;13.73;6.75;;;;;;;-2.10;66.48;94128.03;5091712;28;20024;-45
2022/03/24 01:53:39;;;;;;;14.18;7.65;;;;;;;-2.22;67.22;94120.81;5091471;28;20505;-46
2022/03/24 01:56:04;;;;;;;10.70;7.00;;;;;;;-2.15;66.96;94133.28;5102682;28;20016;-45
2022/03/24 01:58:30;;;;;;;22.77;8.13;;;;;;;-2.27;67.14;94128.78;5111971;28;20034;-45
2022/03/24 02:01:37;;;;;;;21.38;9.70;;;;;;;-2.43;67.50;94119.00;5111903;28;20031;-44
2022/03/24 02:04:04;;;;;;;12.68;6.10;;;;;;;-2.39;68.25;94127.72;5110401;28;20040;-46
2022/03/24 02:06:33;;;;;;;16.00;8.07;;;;;;;-2.40;67.66;94126.19;5111585;28;20028;-44
2022/03/24 02:09:00;;;;;;;14.65;8.20;;;;;;;-2.58;68.61;94126.19;5111393;28;20493;-45
2022/03/24 02:11:26;;;;;;;15.60;7.75;;;;;;;-2.45;67.75;94124.09;5111738;28;20026;-44
2022/03/24 02:13:52;;;;;;;17.90;8.43;;;;;;;-2.41;68.54;94111.94;5111245;28;20028;-43
2022/03/24 02:16:18;;;;;;;19.70;9.02;;;;;;;-2.35;67.94;94123.66;5095533;28;20036;-44
2022/03/24 02:18:45;;;;;;;16.33;9.45;;;;;;;-2.41;68.14;94122.00;5090806;28;20457;-44
2022/03/24 02:21:14;;;;;;;14.88;8.98;;;;;;;-2.63;68.96;94116.72;5091150;28;20032;-44
2022/03/24 02:23:41;;;;;;;15.50;8.10;;;;;;;-2.79;69.45;94110.81;5091180;28;20426;-44
2022/03/24 02:26:09;;;;;;;15.82;9.60;;;;;;;-2.96;69.61;94110.31;5091169;28;20035;-45
2022/03/24 02:28:34;;;;;;;19.35;9.20;;;;;;;-2.90;69.71;94113.22;5091189;28;20024;-45
2022/03/24 02:31:00;;;;;;;19.05;8.60;;;;;;;-2.85;69.83;94112.59;5090987;28;20555;-46
2022/03/24 02:33:25;;;;;;;10.80;5.70;;;;;;;-2.76;69.22;94107.22;5091084;28;20570;-45
2022/03/24 02:35:51;;;;;;;9.77;5.80;;;;;;;-3.02;68.28;94093.19;5090448;28;20043;-44
2022/03/24 02:38:20;;;;;;;21.58;12.38;;;;;;;-2.87;67.98;94106.88;5090973;28;20027;-44
2022/03/24 02:40:47;;;;;;;30.45;15.10;;;;;;;-2.77;68.47;94109.16;5090732;28;20048;-45
2022/03/24 02:43:13;;;;;;;30.63;13.73;;;;;;;-2.88;67.72;94116.22;5090874;28;20024;-46
2022/03/24 02:45:38;;;;;;;26.92;14.55;;;;;;;-2.75;67.62;94106.75;5090907;28;20518;-44
2022/03/24 02:48:04;;;;;;;21.80;11.65;;;;;;;-2.82;68.69;94109.00;5090545;28;20024;-45
2022/03/24 02:50:29;;;;;;;21.35;8.65;;;;;;;-2.84;68.04;94109.47;5090740;28;20024;-44
2022/03/24 02:52:55;;;;;;;14.07;7.75;;;;;;;-2.84;67.47;94100.59;5090796;28;20055;-46
2022/03/24 02:55:20;;;;;;;13.85;7.13;;;;;;;-2.83;67.81;94110.19;5095842;28;20020;-44
2022/03/24 02:57:46;;;;;;;8.05;4.85;;;;;;;-2.98;68.55;94115.41;5110755;28;20489;-46
2022/03/24 03:00:12;;;;;;;12.82;5.15;;;;;;;-2.91;68.06;94108.97;5110740;28;20077;-44
2022/03/24 03:02:37;;;;;;;11.65;7.40;;;;;;;-2.96;67.82;94109.56;5110738;28;20035;-44
2022/03/24 03:05:03;;;;;;;10.20;6.50;;;;;;;-2.91;68.61;94114.38;5110890;28;20024;-45
2022/03/24 03:07:29;;;;;;;12.73;7.13;;;;;;;-3.05;68.22;94114.97;5110967;28;20023;-46
2022/03/24 03:09:54;;;;;;;10.95;6.20;;;;;;;-2.91;67.76;94114.38;5110521;28;20538;-44
2022/03/24 03:12:20;;;;;;;14.65;6.93;;;;;;;-2.89;68.16;94117.41;5096952;28;20160;-44
2022/03/24 03:14:48;;;;;;;10.40;6.20;;;;;;;-2.99;68.51;94110.47;5090130;28;20115;-44
2022/03/24 03:17:15;;;;;;;19.23;10.30;;;;;;;-3.14;68.66;94108.31;5090536;28;20413;-46
2022/03/24 03:19:42;;;;;;;15.45;8.20;;;;;;;-3.10;69.08;94114.31;5090152;28;20067;-44
2022/03/24 03:22:08;;;;;;;19.00;7.40;;;;;;;-3.09;68.87;94113.13;5090245;28;20035;-44
2022/03/24 03:24:33;;;;;;;19.05;8.68;;;;;;;-3.21;68.91;94113.25;5090397;28;20052;-43
2022/03/24 03:26:59;;;;;;;17.63;8.05;;;;;;;-3.41;70.23;94094.72;5090123;28;20106;-46
2022/03/24 03:29:25;;;;;;;23.90;8.85;;;;;;;-3.34;69.97;94082.88;5093337;28;20024;-44
2022/03/24 03:31:54;;;;;;;20.30;9.95;;;;;;;-3.05;69.45;94101.44;5094497;28;20100;-43
2022/03/24 03:34:21;;;;;;;;;;;;;;;-3.06;69.04;94108.81;5094755;28;20434;-45
2022/03/24 03:36:47;;;;;;;17.13;8.10;;;;;;;-3.23;68.55;94105.56;5094140;28;20425;-44
2022/03/24 03:39:13;;;;;;;19.17;8.73;;;;;;;-3.27;69.17;94104.97;5094018;28;20039;-44
2022/03/24 03:41:41;;;;;;;28.13;15.07;;;;;;;-3.27;69.53;94110.34;5093510;28;20031;-43
2022/03/24 03:44:07;;;;;;;18.50;8.30;;;;;;;-3.50;70.31;94104.69;5094008;28;20028;-44
2022/03/24 03:46:33;;;;;;;12.68;6.45;;;;;;;-3.51;70.41;94106.63;5094257;28;20042;-44
2022/03/24 03:48:58;;;;;;;16.58;7.50;;;;;;;-3.50;70.05;94108.16;5094180;28;20471;-45
2022/03/24 03:51:24;;;;;;;14.35;7.63;;;;;;;-3.64;70.32;94107.94;5094375;28;20451;-44
2022/03/24 03:53:50;;;;;;;13.25;7.75;;;;;;;-3.83;69.05;94103.63;5094081;28;20024;-43
2022/03/24 03:56:15;;;;;;;14.63;6.18;;;;;;;-4.14;70.97;94092.78;5106887;28;20039;-45
2022/03/24 03:58:41;;;;;;;14.35;7.82;;;;;;;-3.98;71.58;94096.03;5114094;28;20028;-44
2022/03/24 04:01:08;;;;;;;15.63;6.95;;;;;;;-3.85;71.06;94104.06;5114011;28;20026;-46
2022/03/24 04:03:36;;;;;;;12.35;7.22;;;;;;;-3.76;69.75;94104.13;5114256;28;20415;-44
2022/03/24 04:06:06;;;;;;;15.68;8.70;;;;;;;-3.80;70.19;94106.19;5114210;28;20124;-44
2022/03/24 04:08:32;;;;;;;15.52;6.85;;;;;;;-3.76;70.11;94093.31;5113870;28;20118;-43
2022/03/24 04:10:58;;;;;;;13.40;6.95;;;;;;;-3.83;70.23;94106.34;5103472;28;20020;-45
2022/03/24 04:13:23;;;;;;;15.25;7.43;;;;;;;-3.70;69.93;94099.66;5093639;28;20024;-44
2022/03/24 04:15:51;;;;;;;17.63;8.45;;;;;;;-3.72;70.14;94103.97;5093289;28;20035;-45
2022/03/24 04:18:16;;;;;;;21.30;8.10;;;;;;;-3.93;70.86;94102.81;5093372;28;20051;-44
2022/03/24 04:20:42;;;;;;;13.68;7.70;;;;;;;-3.97;70.70;94107.59;5093514;28;20051;-44
2022/03/24 04:23:08;;;;;;;19.30;7.25;;;;;;;-3.86;71.06;94105.28;5093600;28;20085;-45
2022/03/24 04:25:35;;;;;;;12.82;7.32;;;;;;;-3.95;70.66;94110.59;5093117;28;20035;-43
2022/03/24 04:28:01;;;;;;;13.57;6.43;;;;;;;-3.90;71.03;94115.44;5093389;28;20051;-43
2022/03/24 04:30:26;;;;;;;15.48;6.68;;;;;;;-3.70;70.01;94117.81;5093420;28;20028;-45
2022/03/24 04:32:53;;;;;;;11.20;6.80;;;;;;;-3.76;70.30;94111.44;5093254;28;20050;-44
2022/03/24 04:35:19;;;;;;;17.15;7.45;;;;;;;-3.89;71.51;94116.91;5092792;28;20079;-44
2022/03/24 04:37:45;;;;;;;18.92;8.25;;;;;;;-3.86;71.10;94111.41;5093189;28;20101;-43
2022/03/24 04:40:11;;;;;;;17.40;9.77;;;;;;;-3.82;71.26;94116.69;5091208;28;20540;-44
2022/03/24 04:42:38;;;;;;;19.60;9.05;;;;;;;-3.72;70.66;94118.22;5093155;28;20024;-43
2022/03/24 04:45:04;;;;;;;18.35;9.68;;;;;;;-3.83;71.08;94119.81;5093325;28;20028;-44
2022/03/24 04:47:29;;;;;;;19.30;9.38;;;;;;;-3.73;70.56;94118.69;5093095;28;20044;-44
2022/03/24 04:49:55;;;;;;;11.95;7.30;;;;;;;-3.94;71.53;94114.78;5092968;28;20015;-44
2022/03/24 04:52:22;;;;;;;11.45;7.15;;;;;;;-3.91;71.82;94111.22;5092970;28;20405;-43
2022/03/24 04:54:48;;;;;;;19.13;9.35;;;;;;;-3.86;72.88;94116.06;5093379;28;20393;-43
2022/03/24 04:57:13;;;;;;;31.27;12.73;;;;;;;-3.77;72.66;94116.13;5112945;28;20458;-44
2022/03/24 04:59:39;;;;;;;42.83;12.77;;;;;;;-3.72;72.47;94118.22;5113025;27;20023;-45
2022/03/24 05:02:05;;;;;;;30.83;14.02;;;;;;;-3.77;72.63;94116.13;5113098;28;20027;-44
2022/03/24 05:04:30;;;;;;;34.28;13.38;;;;;;;-3.77;73.51;94112.66;5112692;28;20492;-44
2022/03/24 05:06:56;;;;;;;15.20;8.85;;;;;;;-3.74;73.61;94117.91;5112734;28;20020;-44
2022/03/24 05:09:21;;;;;;;23.88;10.65;;;;;;;-3.57;72.62;94108.41;5112615;28;20035;-44
2022/03/24 05:11:46;;;;;;;23.83;10.82;;;;;;;-3.48;73.04;94113.88;5095724;28;20039;-45
2022/03/24 05:14:12;;;;;;;25.20;11.32;;;;;;;-3.25;71.27;94118.03;5092184;28;20024;-44
2022/03/24 05:16:38;;;;;;;24.38;11.82;;;;;;;-2.91;69.86;94117.84;5092563;28;20024;-44
2022/03/24 05:19:04;;;;;;;23.17;11.70;;;;;;;-2.58;69.28;94112.69;5092248;28;20111;-44
2022/03/24 05:21:31;;;;;;;24.00;12.43;;;;;;;-2.38;68.62;94110.28;5092442;28;20510;-46
2022/03/24 05:23:57;;;;;;;22.33;11.27;;;;;;;-2.62;70.38;94110.09;5092066;28;20024;-44
2022/03/24 05:26:23;;;;;;;21.90;9.60;;;;;;;-2.45;70.74;94097.06;5091922;28;20027;-46
2022/03/24 05:28:49;;;;;;;15.70;8.27;;;;;;;-2.11;69.85;94110.31;5091972;28;20031;-44
2022/03/24 05:31:16;;;;;;;23.98;10.18;;;;;;;-1.95;68.43;94114.66;5092176;28;20106;-44
2022/03/24 05:33:41;;;;;;;34.05;13.73;;;;;;;-1.83;67.73;94098.25;5092059;28;20039;-44
2022/03/24 05:36:07;;;;;;;28.33;13.07;;;;;;;-1.25;66.63;94121.56;5091634;28;20036;-45
2022/03/24 05:38:32;;;;;;;23.58;11.40;;;;;;;-0.73;64.83;94120.31;5091739;28;20032;-44
2022/03/24 05:40:58;;;;;;;25.50;9.30;;;;;;;-0.41;64.91;94117.56;5091244;28;20028;-45
2022/03/24 05:43:24;;;;;;;27.05;12.55;;;;;;;-0.01;63.99;94115.19;5090740;28;20024;-44
2022/03/24 05:45:49;;;;;;;44.88;20.13;;;;;;;0.22;62.71;94093.88;5091601;28;20024;-45
2022/03/24 05:48:15;;;;;;;33.80;15.82;;;;;;;0.52;61.86;94115.16;5091845;28;20031;-45
2022/03/24 05:50:40;;;;;;;34.08;15.65;;;;;;;0.80;61.34;94118.38;5091687;28;20496;-46
2022/03/24 05:53:07;;;;;;;27.15;13.52;;;;;;;1.01;61.05;94102.84;5091801;28;20035;-44
2022/03/24 05:55:34;;;;;;;28.42;14.52;;;;;;;1.44;59.35;94118.34;5098190;28;20027;-44
2022/03/24 05:58:00;;;;;;;219.80;89.15;;;;;;;1.82;58.80;94117.38;5112037;28;20100;-45
2022/03/24 06:00:26;;;;;;;90.57;38.15;;;;;;;2.30;57.40;94112.97;5111618;28;20027;-46
2022/03/24 06:02:53;;;;;;;62.78;27.83;;;;;;;2.59;56.85;94115.50;5111610;28;20043;-45
2022/03/24 06:05:20;;;;;;;36.97;16.67;;;;;;;2.83;55.34;94109.78;5112024;28;20475;-45
2022/03/24 06:07:47;;;;;;;30.35;16.63;;;;;;;3.11;55.27;94110.00;5111509;28;20552;-44
2022/03/24 06:10:12;;;;;;;22.85;13.43;;;;;;;3.92;54.18;94113.72;5107783;28;20028;-45
2022/03/24 06:12:38;;;;;;;27.15;14.30;;;;;;;4.42;52.02;94111.94;5091551;28;20020;-45
2022/03/24 06:15:05;;;;;;;34.33;16.98;;;;;;;5.17;50.94;94111.09;5090002;28;20030;-45
2022/03/24 06:17:30;;;;;;;32.47;17.08;;;;;;;6.24;47.90;94104.19;5091659;28;20034;-44
2022/03/24 06:19:56;;;;;;;24.90;13.27;;;;;;;7.45;44.84;94103.41;5090973;28;20023;-44
2022/03/24 06:22:21;;;;;;;29.02;14.88;;;;;;;8.41;42.33;94099.19;5091284;28;20110;-45
2022/03/24 06:24:46;;;;;;;28.60;13.73;;;;;;;9.17;40.64;94093.13;5090929;28;20429;-46
2022/03/24 06:27:13;;;;;;;25.40;12.98;;;;;;;9.89;39.36;94092.69;5091187;28;20036;-46
2022/03/24 06:29:38;;;;;;;29.20;14.20;;;;;;;10.79;37.29;94094.47;5091203;28;20534;-45
2022/03/24 06:32:05;;;;;;;31.70;15.05;;;;;;;11.74;35.59;94089.00;5090992;28;20077;-45
2022/03/24 06:34:31;;;;;;;56.85;30.13;;;;;;;12.51;33.61;94094.53;5090746;28;20094;-45
2022/03/24 06:36:57;;;;;;;96.13;50.75;;;;;;;13.13;33.56;94087.97;5090635;28;20549;-46
2022/03/24 06:39:22;;;;;;;145.52;73.13;;;;;;;13.91;32.03;94077.91;5090899;28;20020;-46
2022/03/24 06:41:48;;;;;;;147.55;76.03;;;;;;;15.07;30.45;94088.41;5107981;28;20442;-45
2022/03/24 06:44:14;;;;;;;97.15;56.33;;;;;;;15.86;28.45;94089.66;5109962;28;20019;-45
2022/03/24 06:46:39;;;;;;;86.35;46.40;;;;;;;16.57;27.11;94083.13;5111224;28;20023;-45
2022/03/24 06:49:06;;;;;;;41.33;21.75;;;;;;;16.99;26.43;94085.06;5111157;28;20030;-45
2022/03/24 06:51:32;;;;;;;36.53;16.13;;;;;;;17.93;25.23;94075.09;5110876;28;20034;-46
2022/03/24 06:53:58;;;;;;;36.55;15.80;;;;;;;18.84;24.45;94071.50;5111144;28;20015;-45
2022/03/24 06:56:23;;;;;;;12.35;7.25;;;;;;;19.71;23.90;94075.66;5101123;28;20464;-45
2022/03/24 06:58:49;;;;;;;18.65;9.20;;;;;;;20.50;22.99;94081.13;5110757;28;20076;-47
2022/03/24 07:01:15;;;;;;;14.70;9.80;;;;;;;21.06;21.35;94071.59;5111024;28;20048;-45
2022/03/24 07:03:41;;;;;;;15.90;8.00;;;;;;;21.48;20.47;94082.03;5110385;28;20168;-45
2022/03/24 07:06:07;;;;;;;13.13;8.50;;;;;;;21.98;20.45;94078.13;5110707;28;20099;-46
2022/03/24 07:08:32;;;;;;;13.05;6.30;;;;;;;22.13;18.77;94069.22;5110617;28;20020;-46
2022/03/24 07:10:57;;;;;;;11.77;7.07;;;;;;;21.28;18.70;94082.78;5100869;28;20031;-48
2022/03/24 07:13:23;;;;;;;14.30;8.68;;;;;;;21.47;19.71;94082.63;5090460;28;20024;-47
2022/03/24 07:15:49;;;;;;;13.13;7.70;;;;;;;21.68;18.35;94071.31;5090147;28;20536;-47
2022/03/24 07:18:15;;;;;;;9.80;5.43;;;;;;;22.34;18.56;94078.28;5090492;28;20024;-46
2022/03/24 07:20:41;;;;;;;8.65;5.28;;;;;;;22.06;17.46;94078.63;5090157;28;20481;-46
2022/03/24 07:23:08;;;;;;;11.40;5.75;;;;;;;22.38;17.35;94074.97;5090499;28;20110;-45
2022/03/24 07:25:36;;;;;;;23.67;6.82;;;;;;;22.87;18.16;94067.34;5090424;28;20160;-45
2022/03/24 07:28:03;;;;;;;15.45;6.20;;;;;;;22.90;17.93;94063.28;5090359;28;20382;-46
2022/03/24 07:30:28;;;;;;;8.10;5.30;;;;;;;22.60;17.38;94073.50;5090127;28;20031;-46
2022/03/24 07:32:55;;;;;;;17.23;7.63;;;;;;;23.33;17.65;94064.41;5090066;28;20020;-45
2022/03/24 07:35:24;;;;;;;11.43;5.82;;;;;;;22.90;16.70;94055.59;5089961;28;20067;-46
2022/03/24 07:37:50;;;;;;;8.45;5.45;;;;;;;22.62;17.78;94056.75;5090307;28;20107;-46
2022/03/24 07:40:18;;;;;;;11.93;6.80;;;;;;;23.09;17.88;94068.63;5089692;28;20107;-45
2022/03/24 07:42:49;;;;;;;10.48;5.85;;;;;;;23.71;15.92;94060.19;5090251;28;20486;-46
2022/03/24 07:45:14;;;;;;;16.05;5.85;;;;;;;23.05;15.93;94059.94;5090245;28;20115;-46
2022/03/24 07:48:17;;;;;;;10.30;6.13;;;;;;;23.64;15.70;94064.00;5090281;28;20020;-45
2022/03/24 07:50:45;;;;;;;11.95;5.78;;;;;;;23.78;15.22;94047.88;5089870;28;20069;-45
2022/03/24 07:53:14;;;;;;;12.27;5.93;;;;;;;24.65;16.35;94056.78;5100103;28;20424;-45
2022/03/24 07:55:44;;;;;;;15.27;6.53;;;;;;;25.09;15.41;94049.13;5102569;28;20036;-45
2022/03/24 07:58:10;;;;;;;9.73;5.70;;;;;;;25.66;15.29;94049.81;5090202;28;20489;-43
2022/03/24 08:00:36;;;;;;;10.57;5.65;;;;;;;25.54;15.03;94047.88;5089792;28;20564;-43
2022/03/24 08:03:02;;;;;;;14.43;6.20;;;;;;;25.67;15.21;94052.00;5089753;28;20062;-44
2022/03/24 08:05:28;;;;;;;10.95;7.03;;;;;;;26.37;14.27;94054.56;5090014;28;20096;-43
2022/03/24 08:07:54;;;;;;;14.07;6.47;;;;;;;24.76;14.93;94052.41;5089947;28;20038;-44
2022/03/24 08:10:20;;;;;;;14.05;9.15;;;;;;;24.19;15.06;94051.53;5094617;28;20015;-47
2022/03/24 08:12:45;;;;;;;19.13;11.20;;;;;;;25.44;15.48;94052.31;5109996;28;20081;-47
2022/03/24 08:15:11;;;;;;;13.43;9.15;;;;;;;25.63;15.20;94037.66;5112380;28;20019;-45
2022/03/24 08:17:36;;;;;;;18.23;10.07;;;;;;;26.27;14.67;94051.25;5113713;28;20035;-47
2022/03/24 08:20:03;;;;;;;11.35;8.32;;;;;;;26.14;14.08;94050.00;5113646;28;20027;-46
2022/03/24 08:22:29;;;;;;;20.90;13.38;;;;;;;26.20;14.98;94049.56;5113677;28;20106;-45
2022/03/24 08:24:54;;;;;;;20.85;9.07;;;;;;;26.71;14.17;94044.75;5113566;28;20098;-46
2022/03/24 08:27:19;;;;;;;9.18;5.53;;;;;;;26.87;13.83;94047.59;5113874;28;20026;-47
2022/03/24 08:29:45;;;;;;;9.27;5.45;;;;;;;26.96;13.93;94047.28;5113476;28;20024;-46
2022/03/24 08:32:12;;;;;;;18.30;7.93;;;;;;;26.88;14.48;94054.69;5113451;28;20023;-44
2022/03/24 08:34:38;;;;;;;11.18;5.85;;;;;;;26.93;13.18;94042.91;5113351;28;20093;-47
2022/03/24 08:37:04;;;;;;;9.98;7.20;;;;;;;26.85;13.85;94039.75;5113668;28;20090;-45
2022/03/24 08:39:29;;;;;;;11.90;6.50;;;;;;;26.96;12.55;94044.44;5113606;27;20401;-42
2022/03/24 08:41:55;;;;;;;10.95;7.07;;;;;;;25.55;13.73;94040.13;5112961;28;20016;-46
2022/03/24 08:44:20;;;;;;;20.95;10.13;;;;;;;26.17;14.12;94022.50;5112031;28;20472;-47
2022/03/24 08:46:46;;;;;;;20.02;11.70;;;;;;;26.59;14.14;94015.91;5113443;28;20059;-46
2022/03/24 08:49:12;;;;;;;8.27;5.80;;;;;;;27.14;13.83;94035.97;5105149;27;20056;-45
2022/03/24 08:51:38;;;;;;;8.82;5.80;;;;;;;27.42;13.44;94030.75;5092683;28;20031;-45
2022/03/24 08:54:04;;;;;;;9.88;6.45;;;;;;;27.83;13.12;94031.00;5092604;28;20123;-45
2022/03/24 08:56:29;;;;;;;11.52;5.22;;;;;;;28.03;12.98;94014.03;5107644;28;20031;-47
2022/03/24 08:58:55;;;;;;;15.55;8.18;;;;;;;27.63;13.24;94019.59;5113187;28;20020;-46
2022/03/24 09:01:21;;;;;;;12.07;6.80;;;;;;;27.88;12.72;94026.19;5113216;28;20120;-44
2022/03/24 09:03:49;;;;;;;9.95;6.25;;;;;;;28.33;13.12;94020.84;5112798;28;20023;-45
2022/03/24 09:06:15;;;;;;;11.95;7.28;;;;;;;28.31;12.76;94010.16;5113168;28;20020;-45
2022/03/24 09:08:42;;;;;;;9.18;6.72;;;;;;;28.80;11.63;94011.94;5111553;28;20463;-45
2022/03/24 09:11:09;;;;;;;12.70;6.75;;;;;;;28.88;11.79;94017.88;5112968;28;20023;-45
2022/03/24 09:13:35;;;;;;;11.63;5.80;;;;;;;29.12;12.18;94013.78;5112923;28;20026;-46
2022/03/24 09:16:00;;;;;;;9.95;6.40;;;;;;;28.89;11.66;94008.69;5112837;28;20035;-45
2022/03/24 09:18:26;;;;;;;9.45;6.18;;;;;;;29.44;11.20;94011.28;5112900;28;20385;-44
2022/03/24 09:20:51;;;;;;;62.05;10.27;;;;;;;29.30;12.29;94012.94;5112768;28;20020;-46
2022/03/24 09:23:17;;;;;;;20.23;6.80;;;;;;;28.51;12.09;93990.28;5112504;27;20015;-46
2022/03/24 09:25:43;;;;;;;12.07;6.88;;;;;;;28.54;12.01;94006.03;5112137;27;20020;-45
2022/03/24 09:28:10;;;;;;;12.68;6.78;;;;;;;29.08;12.15;94010.06;5112685;28;20027;-45
2022/03/24 09:30:35;;;;;;;15.77;7.03;;;;;;;29.42;11.86;93991.31;5112676;28;20023;-47
2022/03/24 09:33:01;;;;;;;25.13;7.93;;;;;;;29.09;11.99;93994.44;5112616;28;20422;-44
2022/03/24 09:35:26;;;;;;;13.82;8.93;;;;;;;29.00;13.01;93990.59;5112139;28;20035;-46
2022/03/24 09:37:52;;;;;;;11.50;6.70;;;;;;;28.78;12.01;93989.13;5112161;28;20091;-46
2022/03/24 09:40:17;;;;;;;12.38;6.60;;;;;;;28.83;12.20;93991.44;5111565;28;20019;-46
2022/03/24 09:42:43;;;;;;;11.57;6.93;;;;;;;29.16;11.90;93985.50;5112155;28;20020;-45
2022/03/24 09:45:11;;;;;;;11.32;6.80;;;;;;;29.46;12.68;93974.38;5112184;28;20026;-45
2022/03/24 09:47:38;;;;;;;8.30;6.03;;;;;;;29.73;11.58;93979.50;5112071;28;20020;-47
2022/03/24 09:50:05;;;;;;;14.15;9.05;;;;;;;29.21;11.96;93978.56;5112189;28;20020;-47
2022/03/24 09:52:31;;;;;;;13.38;7.80;;;;;;;28.79;12.98;93974.25;5112224;28;20473;-44
2022/03/24 09:54:56;;;;;;;16.80;7.80;;;;;;;29.05;12.65;93957.34;5110176;28;20110;-45
2022/03/24 09:57:22;;;;;;;9.30;6.78;;;;;;;29.27;11.58;93969.50;5091764;28;20030;-44
2022/03/24 09:59:47;;;;;;;22.05;7.18;;;;;;;29.50;11.26;93965.97;5091649;28;20020;-45
2022/03/24 10:02:13;;;;;;;13.07;7.55;;;;;;;29.40;11.02;93959.97;5091634;28;20035;-45
2022/03/24 10:04:48;;;;;;;15.23;5.95;;;;;;;29.24;10.84;93962.28;5091287;28;20473;-44
2022/03/24 10:07:14;;;;;;;13.20;6.35;;;;;;;29.37;11.40;93966.97;5091548;28;20020;-46
2022/03/24 10:09:48;;;;;;;11.40;5.90;;;;;;;28.67;11.21;93956.06;5091539;28;20031;-47
2022/03/24 10:12:31;;;;;;;9.73;6.28;;;;;;;28.45;12.45;93955.97;5091529;28;20027;-45
2022/03/24 10:15:03;;;;;;;8.93;6.15;;;;;;;28.72;11.98;93960.50;5091317;28;20107;-44
2022/03/24 10:17:29;;;;;;;14.00;6.10;;;;;;;28.91;11.54;93956.88;5091147;28;20034;-46
2022/03/24 10:20:04;;;;;;;13.13;6.30;;;;;;;27.99;12.69;93957.84;5105169;28;20055;-45
2022/03/24 10:22:30;;;;;;;12.52;7.50;;;;;;;28.39;11.27;93965.00;5091329;28;20461;-45
2022/03/24 10:24:56;;;;;;;16.75;6.72;;;;;;;27.71;10.43;93970.94;5091191;28;20024;-45
2022/03/24 10:27:27;;;;;;;28.13;6.88;;;;;;;27.20;11.08;93958.97;5106978;28;20085;-48
2022/03/24 10:29:55;;;;;;;7.95;5.95;;;;;;;27.18;10.97;93956.75;5091207;28;20034;-46
2022/03/24 10:32:21;;;;;;;15.50;6.55;;;;;;;26.48;11.15;93956.63;5091219;28;20426;-45
2022/03/24 10:34:48;;;;;;;10.25;5.82;;;;;;;27.03;10.78;93946.97;5090452;28;20041;-47
2022/03/24 10:37:18;;;;;;;12.27;6.20;;;;;;;27.07;10.81;93937.19;5090673;28;20028;-45
2022/03/24 10:39:55;;;;;;;10.30;5.90;;;;;;;27.83;11.21;93943.00;5089740;28;20031;-45
2022/03/24 10:42:23;;;;;;;9.65;5.53;;;;;;;26.46;12.19;93960.13;5104231;28;20127;-46
2022/03/24 10:45:05;;;;;;;16.98;6.53;;;;;;;25.97;11.80;93948.72;5111270;28;20047;-46
2022/03/24 10:47:47;;;;;;;35.63;8.32;;;;;;;26.01;11.41;93953.84;5111223;28;20036;-44
2022/03/24 10:50:28;;;;;;;10.55;6.43;;;;;;;25.98;11.34;93927.56;5110893;28;20067;-44
2022/03/24 10:52:57;;;;;;;8.90;6.00;;;;;;;26.07;12.02;93946.34;5111150;28;20115;-45
2022/03/24 10:55:44;;;;;;;7.60;5.40;;;;;;;25.26;12.39;93941.16;5105608;28;20032;-45
2022/03/24 10:58:30;;;;;;;12.00;6.18;;;;;;;26.21;11.98;93938.50;5090751;28;20036;-45
2022/03/24 11:00:58;;;;;;;13.18;6.47;;;;;;;26.54;12.25;93934.22;5090948;28;20447;-46
2022/03/24 11:03:24;;;;;;;6.30;5.70;;;;;;;26.33;11.87;93913.53;5090424;28;20062;-44
2022/03/24 11:05:50;;;;;;;12.20;7.05;;;;;;;26.36;11.81;93916.47;5090671;28;20028;-46
2022/03/24 11:08:17;;;;;;;14.85;7.38;;;;;;;26.75;11.19;93920.28;5090593;28;20035;-44
2022/03/24 11:10:47;;;;;;;8.55;6.45;;;;;;;27.12;12.06;93918.94;5098698;28;20023;-44
2022/03/24 11:13:40;;;;;;;13.27;5.80;;;;;;;27.08;11.87;93907.44;5110619;28;20501;-45
2022/03/24 11:16:05;;;;;;;11.73;6.18;;;;;;;26.99;11.78;93909.97;5108601;28;20031;-45
2022/03/24 11:18:31;;;;;;;14.05;8.52;;;;;;;26.95;11.30;93901.28;5110925;28;20413;-44
2022/03/24 11:21:03;;;;;;;14.63;9.40;;;;;;;27.04;11.33;93896.69;5110544;28;20513;-45
2022/03/24 11:23:35;;;;;;;12.55;7.22;;;;;;;26.67;12.13;93888.03;5110543;28;20130;-45